.
WxDataArchive / Data Records for 2009-06-06
2009-06-05 June 2009 2009-06-07

Data Records for Saturday, 06 June 2009

Time	Temp	Chill	HIndex	Humid	Dewpt	 Wind 	HiWind	WindDir	Rain 	Barom 
-----	----	-----	------	-----	-----	------	------	-------	-----	----- 
00:00	55.7	55.7	55.7	69	45.7	0	0	---	0.00	29.919 
00:05	55.6	55.6	55.6	70	46.0	0	0	---	0.00	29.919 
00:10	55.6	55.6	55.6	70	46.0	0	0	---	0.00	29.919 
00:15	55.4	55.4	55.4	70	45.8	0	0	---	0.00	29.921 
00:20	55.4	55.4	55.4	70	45.8	0	1	292	0.00	29.921 
00:25	55.6	55.6	55.6	69	45.6	0	1	292	0.00	29.921 
00:30	56.2	56.2	56.2	67	45.4	0	1	292	0.00	29.921 
00:35	56.7	56.7	56.7	65	45.1	0	0	---	0.00	29.921 
00:40	57.2	57.2	57.2	64	45.1	0	0	---	0.00	29.921 
00:45	57.6	57.6	57.6	62	44.7	0	0	---	0.00	29.919 
00:50	58.0	58.0	58.0	62	45.1	0	0	---	0.00	29.919 
00:55	58.1	58.1	58.1	61	44.7	0	0	---	0.00	29.919 
01:00	58.3	58.3	58.3	61	44.9	0	0	---	0.00	29.918 
01:05	58.3	58.3	58.3	62	45.3	0	0	---	0.00	29.918 
01:10	58.3	58.3	58.3	62	45.3	0	0	---	0.00	29.918 
01:15	58.3	58.3	58.3	62	45.3	0	0	---	0.00	29.918 
01:20	58.3	58.3	58.3	61	44.9	0	1	292	0.00	29.918 
01:25	58.3	58.3	58.3	61	44.9	0	0	---	0.00	29.918 
01:30	58.4	58.4	58.4	61	45.0	0	1	292	0.00	29.918 
01:35	58.6	58.6	58.6	60	44.8	0	1	292	0.00	29.918 
01:40	58.7	58.7	58.7	60	44.8	0	1	292	0.00	29.918 
01:45	58.7	58.7	58.7	60	44.8	0	1	292	0.00	29.918 
01:50	58.7	58.7	58.7	60	44.8	0	0	---	0.00	29.918 
01:55	58.7	58.7	58.7	60	44.8	0	0	---	0.00	29.918 
02:00	58.6	58.6	58.6	61	45.2	0	1	292	0.00	29.919 
02:05	58.4	58.4	58.4	61	45.0	0	0	---	0.00	29.919 
02:10	58.3	58.3	58.3	61	44.9	0	0	---	0.00	29.919 
02:15	58.1	58.1	58.1	61	44.7	0	0	---	0.00	29.914 
02:20	58.0	58.0	58.0	62	45.1	0	0	---	0.00	29.914 
02:25	57.6	57.6	57.6	63	45.1	0	0	---	0.00	29.914 
02:30	57.5	57.5	57.5	63	45.0	0	0	---	0.00	29.911 
02:35	57.3	57.3	57.3	63	44.8	0	0	---	0.00	29.911 
02:40	57.3	57.3	57.3	63	44.8	0	0	---	0.00	29.911 
02:45	57.3	57.3	57.3	64	45.2	0	1	292	0.00	29.913 
02:50	57.3	57.3	57.3	63	44.8	0	0	---	0.00	29.913 
02:55	57.5	57.5	57.5	64	45.4	0	1	292	0.00	29.913 
03:00	57.5	57.5	57.5	64	45.4	0	1	292	0.00	29.910 
03:05	57.5	57.5	57.5	64	45.4	0	0	---	0.00	29.910 
03:10	57.3	57.3	57.3	64	45.2	0	0	---	0.00	29.910 
03:15	57.3	57.3	57.3	64	45.2	0	0	---	0.00	29.909 
03:20	57.3	57.3	57.3	65	45.6	0	1	292	0.00	29.909 
03:25	57.3	57.3	57.3	65	45.6	0	1	292	0.00	29.909 
03:30	57.3	57.3	57.3	64	45.2	0	1	292	0.00	29.911 
03:35	57.3	57.3	57.3	64	45.2	0	1	292	0.00	29.911 
03:40	57.5	57.5	57.5	64	45.4	0	1	292	0.00	29.911 
03:45	57.5	57.5	57.5	64	45.4	0	1	292	0.00	29.910 
03:50	57.8	57.8	57.8	63	45.3	0	2	292	0.00	29.910 
03:55	58.0	58.0	58.0	63	45.5	0	1	292	0.00	29.910 
04:00	58.1	58.1	58.1	63	45.6	0	1	292	0.00	29.903 
04:05	58.1	58.1	58.1	63	45.6	0	1	292	0.00	29.903 
04:10	58.1	58.1	58.1	63	45.6	0	1	292	0.00	29.903 
04:15	58.1	58.1	58.1	63	45.6	0	1	292	0.00	29.904 
04:20	58.1	58.1	58.1	63	45.6	0	1	292	0.00	29.904 
04:25	58.0	58.0	58.0	63	45.5	0	1	292	0.00	29.904 
04:30	58.0	58.0	58.0	63	45.5	0	1	292	0.00	29.902 
04:35	57.8	57.8	57.8	64	45.7	0	1	292	0.00	29.902 
04:40	57.8	57.8	57.8	64	45.7	0	1	292	0.00	29.902 
04:45	57.8	57.8	57.8	64	45.7	0	1	292	0.00	29.901 
04:50	57.8	57.8	57.8	64	45.7	0	1	292	0.00	29.901 
04:55	57.8	57.8	57.8	64	45.7	0	2	270	0.00	29.901 
05:00	57.8	57.8	57.8	63	45.3	0	1	270	0.00	29.900 
05:05	58.0	58.0	58.0	63	45.5	0	2	270	0.00	29.900 
05:10	58.0	58.0	58.0	63	45.5	0	2	248	0.00	29.900 
05:15	58.0	58.0	58.0	63	45.5	0	2	248	0.00	29.901 
05:20	58.0	58.0	58.0	63	45.5	0	1	248	0.00	29.901 
05:25	57.8	57.8	57.8	63	45.3	0	1	248	0.00	29.901 
05:30	57.6	57.6	57.6	63	45.1	0	1	248	0.00	29.904 
05:35	57.5	57.5	57.5	64	45.4	0	1	248	0.00	29.904 
05:40	57.3	57.3	57.3	64	45.2	0	2	248	0.00	29.904 
05:45	57.3	57.3	57.3	64	45.2	0	1	248	0.00	29.917 
05:50	57.5	57.5	57.5	64	45.4	0	1	248	0.00	29.917 
05:55	57.5	57.5	57.5	64	45.4	0	1	248	0.00	29.917 
06:00	57.5	57.5	57.5	64	45.4	0	2	248	0.00	29.926 
06:05	57.6	57.6	57.6	64	45.5	0	2	248	0.00	29.926 
06:10	57.5	57.5	57.5	64	45.4	0	1	248	0.00	29.926 
06:15	57.5	57.5	57.5	64	45.4	0	1	248	0.00	29.927 
06:20	57.5	57.5	57.5	64	45.4	0	1	248	0.00	29.927 
06:25	57.3	57.3	57.3	65	45.6	0	1	248	0.00	29.927 
06:30	57.3	57.3	57.3	65	45.6	0	0	---	0.00	29.933 
06:35	57.2	57.2	57.2	65	45.5	0	0	---	0.00	29.933 
06:40	57.2	57.2	57.2	66	45.9	0	1	248	0.00	29.933 
06:45	57.2	57.2	57.2	66	45.9	0	1	248	0.00	29.933 
06:50	57.2	57.2	57.2	66	45.9	0	0	---	0.00	29.933 
06:55	57.3	57.3	57.3	67	46.4	0	0	---	0.00	29.933 
07:00	57.5	57.5	57.5	67	46.6	0	1	248	0.00	29.934 
07:05	57.6	57.6	57.6	67	46.7	0	1	248	0.00	29.934 
07:10	58.0	58.0	58.0	66	46.7	0	1	248	0.00	29.934 
07:15	58.1	58.1	58.1	66	46.8	0	1	248	0.00	29.933 
07:20	58.4	58.4	58.4	66	47.1	0	1	248	0.00	29.933 
07:25	58.9	58.9	58.9	65	47.2	0	2	248	0.00	29.933 
07:30	59.3	59.3	59.3	65	47.5	0	1	248	0.00	29.931 
07:35	59.9	59.9	59.9	64	47.7	0	2	248	0.00	29.931 
07:40	60.4	60.4	60.4	63	47.7	0	2	248	0.00	29.931 
07:45	60.9	60.9	60.9	63	48.2	0	3	225	0.00	29.935 
07:50	61.3	61.3	61.3	62	48.2	1	2	225	0.00	29.935 
07:55	61.8	61.8	61.8	61	48.2	1	2	248	0.00	29.935 
08:00	62.1	62.1	62.1	60	48.0	1	3	248	0.00	29.945 
08:05	62.4	62.4	62.4	60	48.3	1	2	270	0.00	29.945 
08:10	62.7	62.7	62.7	60	48.6	1	3	315	0.00	29.945 
08:15	63.1	63.1	63.1	59	48.5	1	3	292	0.00	29.952 
08:20	63.5	63.5	63.5	59	48.9	1	2	292	0.00	29.952 
08:25	64.0	64.0	64.0	59	49.4	0	2	248	0.00	29.952 
08:30	64.5	64.5	64.5	58	49.4	1	3	248	0.00	29.962 
08:35	64.7	64.7	64.7	58	49.6	1	4	248	0.00	29.962 
08:40	64.8	64.8	64.8	58	49.7	1	4	248	0.00	29.962 
08:45	64.8	64.8	64.8	58	49.7	2	5	248	0.00	29.965 
08:50	64.8	64.8	64.8	58	49.7	2	3	248	0.00	29.965 
08:55	65.2	65.2	65.2	58	50.0	1	2	270	0.00	29.965 
09:00	65.6	65.6	65.6	59	50.9	1	2	270	0.00	29.967 
09:05	66.1	66.1	66.1	58	50.9	1	3	248	0.00	29.967 
09:10	66.4	66.4	66.4	58	51.2	1	3	248	0.00	29.967 
09:15	66.9	66.9	66.9	57	51.2	1	3	248	0.00	29.981 
09:20	67.1	67.1	67.1	57	51.3	1	3	248	0.00	29.981 
09:25	67.4	67.4	67.4	57	51.6	1	2	248	0.00	29.981 
09:30	67.8	67.8	67.8	57	52.0	0	2	248	0.00	29.981 
09:35	67.9	67.9	67.9	57	52.1	1	3	270	0.00	29.981 
09:40	68.3	68.3	68.3	57	52.5	1	2	270	0.00	29.981 
09:45	68.8	68.8	68.8	56	52.5	0	2	270	0.00	29.979 
09:50	69.4	69.4	69.4	56	53.0	1	2	270	0.00	29.979 
09:55	69.9	69.9	69.9	54	52.5	0	2	248	0.00	29.979 
10:00	70.4	70.4	70.4	54	52.9	0	3	248	0.00	29.978 
10:05	70.8	70.8	70.8	52	52.3	1	3	248	0.00	29.978 
10:10	71.3	71.3	71.3	53	53.3	0	2	248	0.00	29.978 
10:15	71.5	71.5	71.5	52	52.9	0	2	248	0.00	29.979 
10:20	71.6	71.6	71.6	52	53.0	1	2	248	0.00	29.979 
10:25	71.8	71.8	71.8	53	53.7	1	3	248	0.00	29.979 
10:30	72.3	72.3	72.3	55	55.2	0	2	248	0.00	29.979 
10:35	72.7	72.7	72.7	52	54.0	1	2	248	0.00	29.979 
10:40	73.2	73.2	73.2	50	53.4	0	2	248	0.00	29.979 
10:45	73.7	73.7	73.7	49	53.3	0	2	248	0.00	29.974 
10:50	73.9	73.9	73.9	48	53.0	1	3	248	0.00	29.974 
10:55	73.7	73.7	73.7	50	53.9	0	2	248	0.00	29.974 
11:00	73.7	73.7	73.7	49	53.3	0	1	248	0.00	29.978 
11:05	73.9	73.9	73.9	50	54.1	0	2	248	0.00	29.978 
11:10	74.2	74.2	74.2	50	54.3	0	2	248	0.00	29.978 
11:15	74.6	74.6	74.6	49	54.2	0	1	248	0.00	29.979 
11:20	75.4	75.4	77.8	47	53.7	0	2	248	0.00	29.979 
11:25	75.8	75.8	77.9	45	52.9	0	1	248	0.00	29.979 
11:30	76.3	76.3	78.2	47	54.6	0	1	248	0.00	29.975 
11:35	76.7	76.7	78.4	47	54.9	1	3	248	0.00	29.975 
11:40	77.0	77.0	78.5	46	54.6	0	2	270	0.00	29.975 
11:45	77.2	77.2	78.6	46	54.8	0	1	248	0.00	29.975 
11:50	77.0	77.0	78.5	48	55.8	0	2	248	0.00	29.975 
11:55	76.8	76.8	78.4	46	54.4	0	2	248	0.00	29.975 
12:00	76.7	76.7	78.4	50	56.6	0	1	248	0.00	29.977 
12:05	76.8	76.8	78.4	47	55.0	0	2	248	0.00	29.977 
12:10	76.5	76.5	78.2	45	53.6	1	2	248	0.00	29.977 
12:15	76.8	76.8	78.4	47	55.0	1	3	248	0.00	29.975 
12:20	77.2	77.2	78.6	46	54.8	1	2	248	0.00	29.975 
12:25	77.7	77.7	78.9	47	55.8	0	2	248	0.00	29.975 
12:30	78.5	78.5	79.4	46	56.0	1	2	270	0.00	29.975 
12:35	78.8	78.8	79.6	46	56.2	1	3	90	0.00	29.975 
12:40	79.0	79.0	79.9	49	58.2	0	2	248	0.00	29.975 
12:45	79.2	79.2	79.7	44	55.4	1	2	270	0.00	29.983 
12:50	79.2	79.2	79.7	44	55.4	1	4	270	0.00	29.983 
12:55	78.8	78.8	79.5	45	55.6	1	2	270	0.00	29.983 
13:00	79.2	79.2	79.7	44	55.4	0	3	270	0.00	29.983 
13:05	79.4	79.4	79.8	43	54.9	1	3	248	0.00	29.983 
13:10	79.4	79.4	80.0	46	56.8	1	3	270	0.00	29.983 
13:15	79.2	79.2	79.6	43	54.7	1	3	292	0.00	29.986 
13:20	78.8	78.8	79.4	43	54.4	1	3	292	0.00	29.986 
13:25	78.8	78.8	79.6	46	56.2	0	1	292	0.00	29.986 
13:30	79.2	79.2	79.8	46	56.6	1	3	270	0.00	29.982 
13:35	79.2	79.2	79.3	39	52.1	1	4	270	0.00	29.982 
13:40	79.2	79.2	79.6	43	54.7	2	5	270	0.00	29.982 
13:45	79.2	79.2	79.6	43	54.7	1	4	90	0.00	29.979 
13:50	79.0	79.0	79.5	43	54.6	1	4	270	0.00	29.979 
13:55	78.8	78.8	79.2	41	53.1	1	4	315	0.00	29.979 
14:00	79.0	79.0	79.7	46	56.4	1	4	248	0.00	29.981 
14:05	79.2	79.2	79.5	41	53.4	1	3	270	0.00	29.981 
14:10	79.4	79.4	79.7	42	54.3	1	2	270	0.00	29.981 
14:15	79.6	79.6	79.7	40	53.1	1	3	292	0.00	29.978 
14:20	79.8	79.8	79.9	41	54.0	2	3	292	0.00	29.978 
14:25	79.8	79.8	80.0	42	54.6	1	3	270	0.00	29.978 
14:30	79.8	79.8	79.9	41	54.0	2	4	270	0.00	29.973 
14:35	79.6	79.6	79.5	38	51.7	1	5	270	0.00	29.973 
14:40	79.8	79.8	79.7	39	52.6	1	3	248	0.00	29.973 
14:45	80.1	80.1	79.9	39	52.9	1	3	248	0.00	29.971 
14:50	80.1	80.1	79.9	39	52.9	2	4	270	0.00	29.971 
14:55	80.1	80.1	79.7	36	50.7	2	4	270	0.00	29.971 
15:00	79.8	79.8	79.7	39	52.6	0	2	270	0.00	29.961 
15:05	79.6	79.6	79.7	41	53.8	0	3	292	0.00	29.961 
15:10	79.8	79.8	79.6	38	51.9	1	3	292	0.00	29.961 
15:15	80.3	80.3	79.8	36	50.9	1	2	292	0.00	29.958 
15:20	80.1	80.1	79.7	36	50.7	1	3	248	0.00	29.958 
15:25	80.1	80.1	79.9	39	52.9	1	3	248	0.00	29.958 
15:30	80.5	80.5	80.1	38	52.5	1	4	248	0.00	29.954 
15:35	80.3	80.3	80.0	38	52.4	1	2	248	0.00	29.954 
15:40	80.3	80.3	80.0	38	52.4	1	3	270	0.00	29.954 
15:45	80.5	80.5	80.0	37	51.8	1	4	270	0.00	29.954 
15:50	79.9	79.9	79.6	37	51.3	1	2	270	0.00	29.954 
15:55	79.6	79.6	79.4	37	51.0	1	2	270	0.00	29.954 
16:00	79.6	79.6	79.6	39	52.4	1	3	270	0.00	29.953 
16:05	79.8	79.8	79.6	38	51.9	1	2	270	0.00	29.953 
16:10	79.8	79.8	79.5	36	50.4	1	4	270	0.00	29.953 
16:15	79.6	79.6	79.5	38	51.7	1	3	270	0.00	29.947 
16:20	79.6	79.6	79.4	36	50.3	0	2	270	0.00	29.947 
16:25	79.9	79.9	79.7	38	52.0	1	2	270	0.00	29.947 
16:30	80.5	80.5	79.9	36	51.1	1	3	270	0.00	29.942 
16:35	81.1	81.1	80.4	37	52.3	1	3	270	0.00	29.942 
16:40	81.2	81.2	80.3	34	50.1	1	3	45	0.00	29.942 
16:45	80.5	80.5	79.9	36	51.1	1	3	270	0.00	29.937 
16:50	80.5	80.5	79.7	33	48.7	0	2	248	0.00	29.937 
16:55	80.9	80.9	80.1	35	50.7	1	3	248	0.00	29.937 
17:00	81.2	81.2	80.1	32	48.5	1	2	68	0.00	29.929 
17:05	81.2	81.2	80.2	33	49.3	0	2	68	0.00	29.929 
17:10	81.2	81.2	80.3	35	50.9	1	4	270	0.00	29.929 
17:15	80.9	80.9	80.1	34	49.9	1	3	270	0.00	29.925 
17:20	80.1	80.1	79.6	35	50.0	1	4	248	0.00	29.925 
17:25	79.6	79.6	79.4	36	50.3	1	3	270	0.00	29.925 
17:30	79.2	79.2	79.3	39	52.1	0	1	270	0.00	29.921 
17:35	79.2	79.2	79.3	39	52.1	0	2	270	0.00	29.921 
17:40	79.2	79.2	79.3	38	51.4	0	0	---	0.00	29.921 
17:45	79.2	79.2	79.4	40	52.8	0	3	112	0.00	29.908 
17:50	79.2	79.2	79.4	40	52.8	0	2	112	0.00	29.908 
17:55	79.2	79.2	79.5	41	53.4	0	1	112	0.00	29.908 
18:00	79.2	79.2	79.3	38	51.4	0	1	112	0.00	29.903 
18:05	78.8	78.8	79.1	39	51.7	0	1	112	0.00	29.903 
18:10	78.6	78.6	79.1	41	52.9	0	1	112	0.00	29.903 
18:15	78.3	78.3	78.9	41	52.6	0	1	112	0.00	29.905 
18:20	78.1	78.1	78.8	41	52.5	0	0	---	0.00	29.905 
18:25	78.1	78.1	78.8	41	52.5	0	1	112	0.00	29.905 
18:30	78.1	78.1	78.8	41	52.5	0	1	112	0.00	29.901 
18:35	78.1	78.1	78.9	42	53.1	0	1	112	0.00	29.901 
18:40	77.7	77.7	78.6	41	52.1	0	2	112	0.00	29.901 
18:45	77.6	77.6	78.6	41	52.0	0	1	112	0.00	29.904 
18:50	77.4	77.4	78.6	43	53.1	0	1	112	0.00	29.904 
18:55	77.2	77.2	78.5	43	52.9	0	2	112	0.00	29.904 
19:00	77.0	77.0	78.4	43	52.8	0	1	112	0.00	29.913 
19:05	76.8	76.8	78.3	44	53.2	0	0	---	0.00	29.913 
19:10	76.8	76.8	78.3	45	53.8	0	1	112	0.00	29.913 
19:15	76.8	76.8	78.4	46	54.4	0	1	112	0.00	29.906 
19:20	77.0	77.0	78.4	44	53.4	0	1	112	0.00	29.906 
19:25	77.0	77.0	78.4	45	54.0	0	1	90	0.00	29.906 
19:30	77.0	77.0	78.4	45	54.0	0	0	---	0.00	29.900 
19:35	77.0	77.0	78.5	46	54.6	0	1	90	0.00	29.900 
19:40	76.8	76.8	78.4	46	54.4	0	0	---	0.00	29.900 
19:45	76.8	76.8	78.4	47	55.0	0	0	---	0.00	29.899 
19:50	76.8	76.8	78.3	45	53.8	0	1	90	0.00	29.899 
19:55	77.0	77.0	78.4	44	53.4	0	1	90	0.00	29.899 
20:00	77.0	77.0	78.4	45	54.0	0	1	90	0.00	29.895 
20:05	76.8	76.8	78.3	44	53.2	0	1	90	0.00	29.895 
20:10	76.8	76.8	78.3	45	53.8	0	0	---	0.00	29.895 
20:15	76.5	76.5	78.2	46	54.2	0	1	90	0.00	29.895 
20:20	76.1	76.1	78.1	47	54.4	0	1	90	0.00	29.895 
20:25	75.8	75.8	78.0	48	54.7	0	0	---	0.00	29.895 
20:30	75.4	75.4	77.8	48	54.3	0	0	---	0.00	29.897 
20:35	75.3	75.3	77.7	48	54.2	0	0	---	0.00	29.897 
20:40	74.9	74.9	74.9	49	54.4	0	0	---	0.00	29.897 
20:45	74.6	74.6	74.6	49	54.2	0	0	---	0.00	29.903 
20:50	74.4	74.4	74.4	49	54.0	0	1	90	0.00	29.903 
20:55	74.2	74.2	74.2	49	53.8	0	1	90	0.00	29.903 
21:00	74.0	74.0	74.0	50	54.2	0	0	---	0.00	29.903 
21:05	73.7	73.7	73.7	50	53.9	0	0	---	0.00	29.903 
21:10	73.5	73.5	73.5	51	54.2	0	0	---	0.00	29.903 
21:15	73.3	73.3	73.3	51	54.1	0	0	---	0.00	29.905 
21:20	73.2	73.2	73.2	51	54.0	0	1	90	0.00	29.905 
21:25	73.2	73.2	73.2	52	54.5	0	0	---	0.00	29.905 
21:30	73.0	73.0	73.0	52	54.3	0	0	---	0.00	29.906 
21:35	73.0	73.0	73.0	52	54.3	0	0	---	0.00	29.906 
21:40	72.8	72.8	72.8	52	54.1	0	0	---	0.00	29.906 
21:45	72.7	72.7	72.7	52	54.0	0	0	---	0.00	29.910 
21:50	72.5	72.5	72.5	52	53.9	0	0	---	0.00	29.910 
21:55	72.5	72.5	72.5	52	53.9	0	0	---	0.00	29.910 
22:00	72.3	72.3	72.3	53	54.2	0	1	90	0.00	29.908 
22:05	72.3	72.3	72.3	54	54.7	0	0	---	0.00	29.908 
22:10	72.1	72.1	72.1	53	54.0	0	0	---	0.00	29.908 
22:15	72.0	72.0	72.0	54	54.4	0	0	---	0.00	29.909 
22:20	72.0	72.0	72.0	53	53.9	0	0	---	0.00	29.909 
22:25	71.8	71.8	71.8	54	54.2	0	0	---	0.00	29.909 
22:30	71.8	71.8	71.8	54	54.2	0	0	---	0.00	29.914 
22:35	71.6	71.6	71.6	53	53.5	0	0	---	0.00	29.914 
22:40	71.6	71.6	71.6	53	53.5	0	0	---	0.00	29.914 
22:45	71.5	71.5	71.5	53	53.5	0	0	---	0.00	29.922 
22:50	71.3	71.3	71.3	54	53.8	0	0	---	0.00	29.922 
22:55	71.3	71.3	71.3	54	53.8	0	1	90	0.00	29.922 
23:00	71.5	71.5	71.5	53	53.5	0	1	90	0.00	29.931 
23:05	71.6	71.6	71.6	53	53.5	0	1	90	0.00	29.931 
23:10	71.6	71.6	71.6	52	53.0	0	2	90	0.00	29.931 
23:15	71.6	71.6	71.6	52	53.0	0	1	90	0.00	29.932 
23:20	71.6	71.6	71.6	52	53.0	0	1	90	0.00	29.932 
23:25	71.6	71.6	71.6	52	53.0	0	1	90	0.00	29.932 
23:30	71.5	71.5	71.5	52	52.9	0	1	90	0.00	29.933 
23:35	71.5	71.5	71.5	53	53.5	0	1	90	0.00	29.933 
23:40	71.3	71.3	71.3	52	52.8	0	1	90	0.00	29.933 
23:45	71.1	71.1	71.1	52	52.6	0	1	90	0.00	29.936 
23:50	71.1	71.1	71.1	52	52.6	0	0	---	0.00	29.936 
23:55	70.9	70.9	70.9	52	52.4	0	1	90	0.00	29.936 

CoCoRaHS
IN-AL-39
A2 Web Hosting
Creative Commons License
GoDaddy
search engine by freefind advanced

loaded 2018-11-15 15:42:18 • last modified 2010-11-18 10:43:29
Privacy PolicyDisclaimer
• wx.awcolley.com is powered by PmWiki v.2002016 •
• all content (unless otherwise noted) © 2018 A W Colley